sensor_id;sensor_type;location;lat;lon;timestamp;P1;durP1;ratioP1;P2;durP2;ratioP2
48207;SDS011;33997;53.278;9.708;2023-03-11T00:02:09;21.83;;;12.05;;
48207;SDS011;33997;53.278;9.708;2023-03-11T00:04:35;24.70;;;13.25;;
48207;SDS011;33997;53.278;9.708;2023-03-11T00:07:01;19.80;;;12.20;;
48207;SDS011;33997;53.278;9.708;2023-03-11T00:09:29;20.90;;;13.57;;
48207;SDS011;33997;53.278;9.708;2023-03-11T00:11:54;20.65;;;12.18;;
48207;SDS011;33997;53.278;9.708;2023-03-11T00:14:20;24.98;;;14.23;;
48207;SDS011;33997;53.278;9.708;2023-03-11T00:16:45;25.38;;;14.27;;
48207;SDS011;33997;53.278;9.708;2023-03-11T00:19:11;26.80;;;15.35;;
48207;SDS011;33997;53.278;9.708;2023-03-11T00:21:36;28.30;;;14.90;;
48207;SDS011;33997;53.278;9.708;2023-03-11T00:24:02;32.00;;;17.27;;
48207;SDS011;33997;53.278;9.708;2023-03-11T00:26:28;33.90;;;17.73;;
48207;SDS011;33997;53.278;9.708;2023-03-11T00:28:53;33.13;;;16.63;;
48207;SDS011;33997;53.278;9.708;2023-03-11T00:31:19;32.78;;;17.27;;
48207;SDS011;33997;53.278;9.708;2023-03-11T00:33:45;35.95;;;18.63;;
48207;SDS011;33997;53.278;9.708;2023-03-11T00:36:26;35.72;;;18.90;;
48207;SDS011;33997;53.278;9.708;2023-03-11T00:38:55;32.28;;;18.13;;
48207;SDS011;33997;53.278;9.708;2023-03-11T00:41:21;38.70;;;19.08;;
48207;SDS011;33997;53.278;9.708;2023-03-11T00:43:46;42.20;;;20.67;;
48207;SDS011;33997;53.278;9.708;2023-03-11T00:46:12;37.58;;;18.73;;
48207;SDS011;33997;53.278;9.708;2023-03-11T00:48:37;38.95;;;19.88;;
48207;SDS011;33997;53.278;9.708;2023-03-11T00:51:03;38.40;;;20.88;;
48207;SDS011;33997;53.278;9.708;2023-03-11T00:53:31;36.75;;;20.40;;
48207;SDS011;33997;53.278;9.708;2023-03-11T00:55:57;35.33;;;19.65;;
48207;SDS011;33997;53.278;9.708;2023-03-11T00:58:22;37.53;;;19.13;;
48207;SDS011;33997;53.278;9.708;2023-03-11T01:00:52;30.42;;;18.13;;
48207;SDS011;33997;53.278;9.708;2023-03-11T01:03:17;32.25;;;18.48;;
48207;SDS011;33997;53.278;9.708;2023-03-11T01:05:43;33.15;;;19.05;;
48207;SDS011;33997;53.278;9.708;2023-03-11T01:08:08;31.00;;;18.15;;
48207;SDS011;33997;53.278;9.708;2023-03-11T01:10:34;28.73;;;16.38;;
48207;SDS011;33997;53.278;9.708;2023-03-11T01:13:00;27.63;;;16.40;;
48207;SDS011;33997;53.278;9.708;2023-03-11T01:15:27;30.52;;;15.85;;
48207;SDS011;33997;53.278;9.708;2023-03-11T01:17:54;27.02;;;15.68;;
48207;SDS011;33997;53.278;9.708;2023-03-11T01:20:20;23.75;;;14.75;;
48207;SDS011;33997;53.278;9.708;2023-03-11T01:22:46;24.73;;;14.95;;
48207;SDS011;33997;53.278;9.708;2023-03-11T01:25:12;24.73;;;14.80;;
48207;SDS011;33997;53.278;9.708;2023-03-11T01:27:40;25.05;;;14.98;;
48207;SDS011;33997;53.278;9.708;2023-03-11T01:30:06;27.05;;;15.13;;
48207;SDS011;33997;53.278;9.708;2023-03-11T01:32:32;24.77;;;14.57;;
48207;SDS011;33997;53.278;9.708;2023-03-11T01:34:57;24.13;;;13.90;;
48207;SDS011;33997;53.278;9.708;2023-03-11T01:37:23;24.60;;;14.57;;
48207;SDS011;33997;53.278;9.708;2023-03-11T01:39:48;23.52;;;13.95;;
48207;SDS011;33997;53.278;9.708;2023-03-11T01:42:14;23.27;;;13.85;;
48207;SDS011;33997;53.278;9.708;2023-03-11T01:44:39;24.08;;;14.32;;
48207;SDS011;33997;53.278;9.708;2023-03-11T01:49:36;25.88;;;15.02;;
48207;SDS011;33997;53.278;9.708;2023-03-11T01:52:06;23.92;;;13.93;;
48207;SDS011;33997;53.278;9.708;2023-03-11T01:54:33;23.50;;;13.35;;
48207;SDS011;33997;53.278;9.708;2023-03-11T01:57:02;23.20;;;13.60;;
48207;SDS011;33997;53.278;9.708;2023-03-11T01:59:41;19.58;;;13.02;;
48207;SDS011;33997;53.278;9.708;2023-03-11T02:04:49;22.80;;;13.93;;
48207;SDS011;33997;53.278;9.708;2023-03-11T02:07:15;23.08;;;12.93;;
48207;SDS011;33997;53.278;9.708;2023-03-11T02:09:41;20.75;;;13.98;;
48207;SDS011;33997;53.278;9.708;2023-03-11T02:12:07;20.23;;;13.18;;
48207;SDS011;33997;53.278;9.708;2023-03-11T02:14:35;20.00;;;12.77;;
48207;SDS011;33997;53.278;9.708;2023-03-11T02:17:04;20.90;;;12.82;;
48207;SDS011;33997;53.278;9.708;2023-03-11T02:22:05;21.95;;;13.05;;
48207;SDS011;33997;53.278;9.708;2023-03-11T02:24:45;23.50;;;14.05;;
48207;SDS011;33997;53.278;9.708;2023-03-11T02:27:33;20.67;;;12.70;;
48207;SDS011;33997;53.278;9.708;2023-03-11T02:30:03;23.67;;;14.32;;
48207;SDS011;33997;53.278;9.708;2023-03-11T02:32:30;22.00;;;12.88;;
48207;SDS011;33997;53.278;9.708;2023-03-11T02:34:56;22.55;;;13.45;;
48207;SDS011;33997;53.278;9.708;2023-03-11T02:37:21;21.92;;;13.05;;
48207;SDS011;33997;53.278;9.708;2023-03-11T02:39:48;21.65;;;13.02;;
48207;SDS011;33997;53.278;9.708;2023-03-11T02:42:21;22.00;;;13.50;;
48207;SDS011;33997;53.278;9.708;2023-03-11T02:44:55;20.60;;;13.20;;
48207;SDS011;33997;53.278;9.708;2023-03-11T02:47:31;23.92;;;13.13;;
48207;SDS011;33997;53.278;9.708;2023-03-11T02:49:58;21.70;;;13.55;;
48207;SDS011;33997;53.278;9.708;2023-03-11T02:52:24;23.10;;;14.05;;
48207;SDS011;33997;53.278;9.708;2023-03-11T02:54:52;21.48;;;13.30;;
48207;SDS011;33997;53.278;9.708;2023-03-11T02:57:17;23.42;;;14.30;;
48207;SDS011;33997;53.278;9.708;2023-03-11T02:59:43;25.02;;;13.63;;
48207;SDS011;33997;53.278;9.708;2023-03-11T03:02:08;24.02;;;13.75;;
48207;SDS011;33997;53.278;9.708;2023-03-11T03:04:34;21.65;;;12.50;;
48207;SDS011;33997;53.278;9.708;2023-03-11T03:06:59;21.20;;;14.23;;
48207;SDS011;33997;53.278;9.708;2023-03-11T03:09:25;23.00;;;14.02;;
48207;SDS011;33997;53.278;9.708;2023-03-11T03:11:50;20.17;;;13.30;;
48207;SDS011;33997;53.278;9.708;2023-03-11T03:14:16;21.08;;;12.93;;
48207;SDS011;33997;53.278;9.708;2023-03-11T03:16:41;19.60;;;11.73;;
48207;SDS011;33997;53.278;9.708;2023-03-11T03:19:06;20.67;;;13.07;;
48207;SDS011;33997;53.278;9.708;2023-03-11T03:21:32;19.85;;;11.38;;
48207;SDS011;33997;53.278;9.708;2023-03-11T03:23:57;17.55;;;11.43;;
48207;SDS011;33997;53.278;9.708;2023-03-11T03:26:23;18.95;;;10.68;;
48207;SDS011;33997;53.278;9.708;2023-03-11T03:28:48;17.63;;;11.52;;
48207;SDS011;33997;53.278;9.708;2023-03-11T03:31:14;16.75;;;10.75;;
48207;SDS011;33997;53.278;9.708;2023-03-11T03:33:40;16.35;;;10.32;;
48207;SDS011;33997;53.278;9.708;2023-03-11T03:36:06;16.67;;;11.05;;
48207;SDS011;33997;53.278;9.708;2023-03-11T03:38:33;14.90;;;9.77;;
48207;SDS011;33997;53.278;9.708;2023-03-11T03:40:58;17.85;;;11.13;;
48207;SDS011;33997;53.278;9.708;2023-03-11T03:43:24;17.23;;;10.73;;
48207;SDS011;33997;53.278;9.708;2023-03-11T03:46:00;17.25;;;10.18;;
48207;SDS011;33997;53.278;9.708;2023-03-11T03:48:27;18.58;;;10.77;;
48207;SDS011;33997;53.278;9.708;2023-03-11T03:50:52;18.73;;;10.75;;
48207;SDS011;33997;53.278;9.708;2023-03-11T03:53:18;16.55;;;10.05;;
48207;SDS011;33997;53.278;9.708;2023-03-11T03:55:43;18.80;;;10.38;;
48207;SDS011;33997;53.278;9.708;2023-03-11T03:58:09;15.70;;;9.82;;
48207;SDS011;33997;53.278;9.708;2023-03-11T04:00:34;16.30;;;10.15;;
48207;SDS011;33997;53.278;9.708;2023-03-11T04:03:00;17.45;;;10.77;;
48207;SDS011;33997;53.278;9.708;2023-03-11T04:05:26;16.90;;;10.48;;
48207;SDS011;33997;53.278;9.708;2023-03-11T04:07:52;16.80;;;9.45;;
48207;SDS011;33997;53.278;9.708;2023-03-11T04:10:18;17.77;;;11.02;;
48207;SDS011;33997;53.278;9.708;2023-03-11T04:12:44;18.08;;;11.27;;
48207;SDS011;33997;53.278;9.708;2023-03-11T04:15:09;17.08;;;10.60;;
48207;SDS011;33997;53.278;9.708;2023-03-11T04:17:35;14.98;;;9.90;;
48207;SDS011;33997;53.278;9.708;2023-03-11T04:20:01;19.63;;;10.90;;
48207;SDS011;33997;53.278;9.708;2023-03-11T04:22:26;16.00;;;10.20;;
48207;SDS011;33997;53.278;9.708;2023-03-11T04:24:52;14.85;;;9.18;;
48207;SDS011;33997;53.278;9.708;2023-03-11T04:27:17;16.27;;;9.15;;
48207;SDS011;33997;53.278;9.708;2023-03-11T04:29:43;14.38;;;9.32;;
48207;SDS011;33997;53.278;9.708;2023-03-11T04:32:08;15.07;;;9.43;;
48207;SDS011;33997;53.278;9.708;2023-03-11T04:34:34;13.88;;;8.98;;
48207;SDS011;33997;53.278;9.708;2023-03-11T04:36:59;15.05;;;9.65;;
48207;SDS011;33997;53.278;9.708;2023-03-11T04:39:25;16.80;;;9.73;;
48207;SDS011;33997;53.278;9.708;2023-03-11T04:41:50;14.52;;;9.38;;
48207;SDS011;33997;53.278;9.708;2023-03-11T04:44:16;16.77;;;9.68;;
48207;SDS011;33997;53.278;9.708;2023-03-11T04:46:41;17.77;;;10.57;;
48207;SDS011;33997;53.278;9.708;2023-03-11T04:49:07;18.83;;;10.80;;
48207;SDS011;33997;53.278;9.708;2023-03-11T04:51:33;20.38;;;10.25;;
48207;SDS011;33997;53.278;9.708;2023-03-11T04:53:58;17.40;;;10.55;;
48207;SDS011;33997;53.278;9.708;2023-03-11T04:56:24;17.27;;;10.10;;
48207;SDS011;33997;53.278;9.708;2023-03-11T04:58:49;17.45;;;11.30;;
48207;SDS011;33997;53.278;9.708;2023-03-11T05:01:15;18.13;;;10.88;;
48207;SDS011;33997;53.278;9.708;2023-03-11T05:03:40;19.05;;;12.50;;
48207;SDS011;33997;53.278;9.708;2023-03-11T05:06:06;21.02;;;12.65;;
48207;SDS011;33997;53.278;9.708;2023-03-11T05:08:31;18.65;;;11.18;;
48207;SDS011;33997;53.278;9.708;2023-03-11T05:10:57;19.50;;;12.02;;
48207;SDS011;33997;53.278;9.708;2023-03-11T05:13:22;20.08;;;12.50;;
48207;SDS011;33997;53.278;9.708;2023-03-11T05:15:48;17.40;;;9.85;;
48207;SDS011;33997;53.278;9.708;2023-03-11T05:18:13;17.85;;;10.93;;
48207;SDS011;33997;53.278;9.708;2023-03-11T05:20:39;18.60;;;11.00;;
48207;SDS011;33997;53.278;9.708;2023-03-11T05:23:05;15.40;;;9.45;;
48207;SDS011;33997;53.278;9.708;2023-03-11T05:25:30;17.15;;;9.30;;
48207;SDS011;33997;53.278;9.708;2023-03-11T05:27:56;15.05;;;9.73;;
48207;SDS011;33997;53.278;9.708;2023-03-11T05:30:21;15.88;;;9.02;;
48207;SDS011;33997;53.278;9.708;2023-03-11T05:32:47;15.30;;;8.93;;
48207;SDS011;33997;53.278;9.708;2023-03-11T05:35:13;18.08;;;9.50;;
48207;SDS011;33997;53.278;9.708;2023-03-11T05:37:38;14.90;;;8.75;;
48207;SDS011;33997;53.278;9.708;2023-03-11T05:40:05;15.32;;;9.27;;
48207;SDS011;33997;53.278;9.708;2023-03-11T05:42:32;14.40;;;8.52;;
48207;SDS011;33997;53.278;9.708;2023-03-11T05:44:58;15.95;;;9.00;;
48207;SDS011;33997;53.278;9.708;2023-03-11T05:47:23;14.70;;;9.00;;
48207;SDS011;33997;53.278;9.708;2023-03-11T05:49:49;14.90;;;8.63;;
48207;SDS011;33997;53.278;9.708;2023-03-11T05:52:14;14.43;;;8.52;;
48207;SDS011;33997;53.278;9.708;2023-03-11T05:54:40;16.45;;;9.15;;
48207;SDS011;33997;53.278;9.708;2023-03-11T05:57:05;15.57;;;9.07;;
48207;SDS011;33997;53.278;9.708;2023-03-11T05:59:31;17.30;;;9.45;;
48207;SDS011;33997;53.278;9.708;2023-03-11T06:01:56;16.50;;;9.18;;
48207;SDS011;33997;53.278;9.708;2023-03-11T06:04:22;15.63;;;9.18;;
48207;SDS011;33997;53.278;9.708;2023-03-11T06:06:48;17.35;;;9.10;;
48207;SDS011;33997;53.278;9.708;2023-03-11T06:09:14;14.50;;;8.73;;
48207;SDS011;33997;53.278;9.708;2023-03-11T06:11:40;14.10;;;8.48;;
48207;SDS011;33997;53.278;9.708;2023-03-11T06:14:06;14.70;;;9.00;;
48207;SDS011;33997;53.278;9.708;2023-03-11T06:16:35;18.38;;;9.23;;
48207;SDS011;33997;53.278;9.708;2023-03-11T06:19:00;16.20;;;8.82;;
48207;SDS011;33997;53.278;9.708;2023-03-11T06:21:26;13.63;;;8.68;;
48207;SDS011;33997;53.278;9.708;2023-03-11T06:23:51;14.35;;;8.25;;
48207;SDS011;33997;53.278;9.708;2023-03-11T06:26:18;17.65;;;9.25;;
48207;SDS011;33997;53.278;9.708;2023-03-11T06:28:45;15.93;;;8.95;;
48207;SDS011;33997;53.278;9.708;2023-03-11T06:31:15;15.90;;;10.00;;
48207;SDS011;33997;53.278;9.708;2023-03-11T06:33:43;14.18;;;8.25;;
48207;SDS011;33997;53.278;9.708;2023-03-11T06:36:09;16.38;;;9.15;;
48207;SDS011;33997;53.278;9.708;2023-03-11T06:38:38;11.80;;;7.82;;
48207;SDS011;33997;53.278;9.708;2023-03-11T06:41:03;13.55;;;7.93;;
48207;SDS011;33997;53.278;9.708;2023-03-11T06:43:31;15.25;;;8.43;;
48207;SDS011;33997;53.278;9.708;2023-03-11T06:45:57;13.05;;;7.93;;
48207;SDS011;33997;53.278;9.708;2023-03-11T06:48:23;13.65;;;7.82;;
48207;SDS011;33997;53.278;9.708;2023-03-11T06:50:52;13.63;;;7.40;;
48207;SDS011;33997;53.278;9.708;2023-03-11T06:53:19;14.55;;;8.23;;
48207;SDS011;33997;53.278;9.708;2023-03-11T06:55:45;13.40;;;7.60;;
48207;SDS011;33997;53.278;9.708;2023-03-11T06:58:10;11.95;;;7.38;;
48207;SDS011;33997;53.278;9.708;2023-03-11T07:00:35;14.30;;;8.02;;
48207;SDS011;33997;53.278;9.708;2023-03-11T07:03:01;12.35;;;7.85;;
48207;SDS011;33997;53.278;9.708;2023-03-11T07:05:26;15.02;;;8.32;;
48207;SDS011;33997;53.278;9.708;2023-03-11T07:07:52;12.40;;;7.65;;
48207;SDS011;33997;53.278;9.708;2023-03-11T07:10:19;14.52;;;7.88;;
48207;SDS011;33997;53.278;9.708;2023-03-11T07:12:45;11.95;;;7.03;;
48207;SDS011;33997;53.278;9.708;2023-03-11T07:17:44;11.55;;;7.30;;
48207;SDS011;33997;53.278;9.708;2023-03-11T07:20:10;14.13;;;7.78;;
48207;SDS011;33997;53.278;9.708;2023-03-11T07:22:36;12.55;;;7.03;;
48207;SDS011;33997;53.278;9.708;2023-03-11T07:25:01;12.88;;;7.60;;
48207;SDS011;33997;53.278;9.708;2023-03-11T07:27:27;13.93;;;7.65;;
48207;SDS011;33997;53.278;9.708;2023-03-11T07:29:53;13.13;;;7.60;;
48207;SDS011;33997;53.278;9.708;2023-03-11T07:32:18;11.65;;;7.38;;
48207;SDS011;33997;53.278;9.708;2023-03-11T07:34:43;13.98;;;7.88;;
48207;SDS011;33997;53.278;9.708;2023-03-11T07:37:09;15.05;;;8.20;;
48207;SDS011;33997;53.278;9.708;2023-03-11T07:39:34;10.80;;;7.57;;
48207;SDS011;33997;53.278;9.708;2023-03-11T07:42:00;14.18;;;7.93;;
48207;SDS011;33997;53.278;9.708;2023-03-11T07:44:25;12.45;;;7.43;;
48207;SDS011;33997;53.278;9.708;2023-03-11T07:46:51;10.63;;;7.05;;
48207;SDS011;33997;53.278;9.708;2023-03-11T07:49:16;11.52;;;6.45;;
48207;SDS011;33997;53.278;9.708;2023-03-11T07:51:42;14.25;;;6.45;;
48207;SDS011;33997;53.278;9.708;2023-03-11T07:54:09;12.20;;;7.53;;
48207;SDS011;33997;53.278;9.708;2023-03-11T07:56:35;13.05;;;6.53;;
48207;SDS011;33997;53.278;9.708;2023-03-11T07:59:02;14.65;;;6.43;;
48207;SDS011;33997;53.278;9.708;2023-03-11T08:01:28;13.98;;;6.07;;
48207;SDS011;33997;53.278;9.708;2023-03-11T08:04:00;11.18;;;5.97;;
48207;SDS011;33997;53.278;9.708;2023-03-11T08:06:28;11.65;;;6.85;;
48207;SDS011;33997;53.278;9.708;2023-03-11T08:08:56;10.65;;;6.25;;
48207;SDS011;33997;53.278;9.708;2023-03-11T08:11:23;12.10;;;6.07;;
48207;SDS011;33997;53.278;9.708;2023-03-11T08:13:49;12.50;;;7.20;;
48207;SDS011;33997;53.278;9.708;2023-03-11T08:16:15;10.77;;;5.72;;
48207;SDS011;33997;53.278;9.708;2023-03-11T08:18:43;12.27;;;6.07;;
48207;SDS011;33997;53.278;9.708;2023-03-11T08:21:11;10.35;;;6.05;;
48207;SDS011;33997;53.278;9.708;2023-03-11T08:23:38;12.48;;;6.63;;
48207;SDS011;33997;53.278;9.708;2023-03-11T08:26:12;13.50;;;6.90;;
48207;SDS011;33997;53.278;9.708;2023-03-11T08:28:39;10.48;;;6.47;;
48207;SDS011;33997;53.278;9.708;2023-03-11T08:31:12;11.98;;;6.13;;
48207;SDS011;33997;53.278;9.708;2023-03-11T08:33:38;13.68;;;6.57;;
48207;SDS011;33997;53.278;9.708;2023-03-11T08:36:04;10.73;;;6.30;;
48207;SDS011;33997;53.278;9.708;2023-03-11T08:38:29;13.30;;;6.30;;
48207;SDS011;33997;53.278;9.708;2023-03-11T08:40:55;12.52;;;6.47;;
48207;SDS011;33997;53.278;9.708;2023-03-11T08:43:20;11.82;;;6.65;;
48207;SDS011;33997;53.278;9.708;2023-03-11T08:45:46;13.13;;;6.10;;
48207;SDS011;33997;53.278;9.708;2023-03-11T08:48:11;10.82;;;5.15;;
48207;SDS011;33997;53.278;9.708;2023-03-11T08:50:41;10.32;;;6.15;;
48207;SDS011;33997;53.278;9.708;2023-03-11T08:53:07;14.93;;;6.05;;
48207;SDS011;33997;53.278;9.708;2023-03-11T08:55:33;12.85;;;6.38;;
48207;SDS011;33997;53.278;9.708;2023-03-11T08:57:58;8.95;;;5.07;;
48207;SDS011;33997;53.278;9.708;2023-03-11T09:00:24;10.50;;;5.45;;
48207;SDS011;33997;53.278;9.708;2023-03-11T09:02:50;9.73;;;5.18;;
48207;SDS011;33997;53.278;9.708;2023-03-11T09:05:15;11.02;;;5.22;;
48207;SDS011;33997;53.278;9.708;2023-03-11T09:07:41;7.60;;;4.40;;
48207;SDS011;33997;53.278;9.708;2023-03-11T09:10:07;8.52;;;4.18;;
48207;SDS011;33997;53.278;9.708;2023-03-11T09:12:33;8.15;;;4.53;;
48207;SDS011;33997;53.278;9.708;2023-03-11T09:14:58;9.43;;;4.68;;
48207;SDS011;33997;53.278;9.708;2023-03-11T09:17:24;10.40;;;4.13;;
48207;SDS011;33997;53.278;9.708;2023-03-11T09:19:49;8.93;;;4.63;;
48207;SDS011;33997;53.278;9.708;2023-03-11T09:22:15;10.27;;;4.72;;
48207;SDS011;33997;53.278;9.708;2023-03-11T09:24:41;8.57;;;4.65;;
48207;SDS011;33997;53.278;9.708;2023-03-11T09:27:06;10.35;;;4.88;;
48207;SDS011;33997;53.278;9.708;2023-03-11T09:29:32;8.48;;;5.03;;
48207;SDS011;33997;53.278;9.708;2023-03-11T09:31:57;9.57;;;5.57;;
48207;SDS011;33997;53.278;9.708;2023-03-11T09:34:23;10.65;;;4.78;;
48207;SDS011;33997;53.278;9.708;2023-03-11T09:36:48;10.93;;;5.40;;
48207;SDS011;33997;53.278;9.708;2023-03-11T09:39:14;8.52;;;5.47;;
48207;SDS011;33997;53.278;9.708;2023-03-11T09:44:32;8.27;;;4.80;;
48207;SDS011;33997;53.278;9.708;2023-03-11T09:49:38;9.48;;;5.38;;
48207;SDS011;33997;53.278;9.708;2023-03-11T09:52:13;13.73;;;5.00;;
48207;SDS011;33997;53.278;9.708;2023-03-11T09:54:44;10.43;;;5.07;;
48207;SDS011;33997;53.278;9.708;2023-03-11T09:57:14;10.23;;;5.35;;
48207;SDS011;33997;53.278;9.708;2023-03-11T09:59:46;8.38;;;5.25;;
48207;SDS011;33997;53.278;9.708;2023-03-11T10:02:20;11.45;;;4.18;;
48207;SDS011;33997;53.278;9.708;2023-03-11T10:04:53;8.68;;;5.10;;
48207;SDS011;33997;53.278;9.708;2023-03-11T10:07:25;10.60;;;4.70;;
48207;SDS011;33997;53.278;9.708;2023-03-11T10:10:03;11.35;;;4.45;;
48207;SDS011;33997;53.278;9.708;2023-03-11T10:15:14;9.32;;;4.35;;
48207;SDS011;33997;53.278;9.708;2023-03-11T10:25:32;8.00;;;4.18;;
48207;SDS011;33997;53.278;9.708;2023-03-11T10:28:31;10.40;;;5.03;;
48207;SDS011;33997;53.278;9.708;2023-03-11T10:31:18;9.18;;;4.35;;
48207;SDS011;33997;53.278;9.708;2023-03-11T10:34:04;7.70;;;3.90;;
48207;SDS011;33997;53.278;9.708;2023-03-11T10:36:35;10.27;;;3.72;;
48207;SDS011;33997;53.278;9.708;2023-03-11T10:39:07;9.35;;;4.18;;
48207;SDS011;33997;53.278;9.708;2023-03-11T10:44:09;6.88;;;3.55;;
48207;SDS011;33997;53.278;9.708;2023-03-11T10:46:39;10.07;;;3.67;;
48207;SDS011;33997;53.278;9.708;2023-03-11T10:49:07;11.45;;;3.75;;
48207;SDS011;33997;53.278;9.708;2023-03-11T10:51:41;7.75;;;3.38;;
48207;SDS011;33997;53.278;9.708;2023-03-11T10:54:19;8.25;;;3.60;;
48207;SDS011;33997;53.278;9.708;2023-03-11T10:56:58;5.78;;;2.90;;
48207;SDS011;33997;53.278;9.708;2023-03-11T10:59:32;7.85;;;3.40;;
48207;SDS011;33997;53.278;9.708;2023-03-11T11:04:59;7.57;;;2.40;;
48207;SDS011;33997;53.278;9.708;2023-03-11T11:07:43;4.85;;;2.15;;
48207;SDS011;33997;53.278;9.708;2023-03-11T11:10:17;6.20;;;2.33;;
48207;SDS011;33997;53.278;9.708;2023-03-11T11:15:31;5.75;;;2.33;;
48207;SDS011;33997;53.278;9.708;2023-03-11T11:18:01;6.10;;;2.92;;
48207;SDS011;33997;53.278;9.708;2023-03-11T11:23:27;7.88;;;2.53;;
48207;SDS011;33997;53.278;9.708;2023-03-11T11:26:09;6.28;;;1.90;;
48207;SDS011;33997;53.278;9.708;2023-03-11T11:28:41;4.32;;;1.90;;
48207;SDS011;33997;53.278;9.708;2023-03-11T11:31:18;4.65;;;1.70;;
48207;SDS011;33997;53.278;9.708;2023-03-11T11:33:52;4.20;;;1.60;;
48207;SDS011;33997;53.278;9.708;2023-03-11T11:38:48;4.78;;;2.00;;
48207;SDS011;33997;53.278;9.708;2023-03-11T11:41:17;4.18;;;1.60;;
48207;SDS011;33997;53.278;9.708;2023-03-11T11:43:53;6.88;;;1.90;;
48207;SDS011;33997;53.278;9.708;2023-03-11T11:48:54;4.00;;;1.23;;
48207;SDS011;33997;53.278;9.708;2023-03-11T11:51:41;6.15;;;1.88;;
48207;SDS011;33997;53.278;9.708;2023-03-11T11:54:33;5.75;;;1.20;;
48207;SDS011;33997;53.278;9.708;2023-03-11T11:57:11;7.25;;;1.40;;
48207;SDS011;33997;53.278;9.708;2023-03-11T11:59:38;7.43;;;1.77;;
48207;SDS011;33997;53.278;9.708;2023-03-11T12:05:11;7.13;;;1.83;;
48207;SDS011;33997;53.278;9.708;2023-03-11T12:10:30;4.80;;;1.55;;
48207;SDS011;33997;53.278;9.708;2023-03-11T12:15:52;6.00;;;1.67;;
48207;SDS011;33997;53.278;9.708;2023-03-11T12:21:09;6.72;;;1.35;;
48207;SDS011;33997;53.278;9.708;2023-03-11T12:23:55;4.78;;;1.30;;
48207;SDS011;33997;53.278;9.708;2023-03-11T12:26:35;8.70;;;1.60;;
48207;SDS011;33997;53.278;9.708;2023-03-11T12:29:06;3.10;;;1.45;;
48207;SDS011;33997;53.278;9.708;2023-03-11T12:31:46;7.13;;;1.52;;
48207;SDS011;33997;53.278;9.708;2023-03-11T12:34:13;8.10;;;1.70;;
48207;SDS011;33997;53.278;9.708;2023-03-11T12:36:43;5.53;;;1.50;;
48207;SDS011;33997;53.278;9.708;2023-03-11T12:39:24;4.40;;;1.38;;
48207;SDS011;33997;53.278;9.708;2023-03-11T12:44:38;6.85;;;1.52;;
48207;SDS011;33997;53.278;9.708;2023-03-11T12:49:37;3.28;;;1.25;;
48207;SDS011;33997;53.278;9.708;2023-03-11T12:57:23;4.88;;;1.45;;
48207;SDS011;33997;53.278;9.708;2023-03-11T13:07:57;3.05;;;1.25;;
48207;SDS011;33997;53.278;9.708;2023-03-11T13:10:35;3.00;;;1.48;;
48207;SDS011;33997;53.278;9.708;2023-03-11T13:15:52;6.10;;;1.13;;
48207;SDS011;33997;53.278;9.708;2023-03-11T13:18:22;10.05;;;1.48;;
48207;SDS011;33997;53.278;9.708;2023-03-11T13:20:57;9.07;;;1.60;;
48207;SDS011;33997;53.278;9.708;2023-03-11T13:23:25;5.80;;;1.38;;
48207;SDS011;33997;53.278;9.708;2023-03-11T13:31:19;4.60;;;1.70;;
48207;SDS011;33997;53.278;9.708;2023-03-11T13:34:12;3.50;;;1.10;;
48207;SDS011;33997;53.278;9.708;2023-03-11T13:37:10;4.72;;;1.25;;
48207;SDS011;33997;53.278;9.708;2023-03-11T13:42:49;5.53;;;1.27;;
48207;SDS011;33997;53.278;9.708;2023-03-11T13:45:24;4.38;;;1.25;;
48207;SDS011;33997;53.278;9.708;2023-03-11T13:47:56;5.53;;;1.15;;
48207;SDS011;33997;53.278;9.708;2023-03-11T13:50:59;5.55;;;1.15;;
48207;SDS011;33997;53.278;9.708;2023-03-11T13:53:37;2.45;;;1.00;;
48207;SDS011;33997;53.278;9.708;2023-03-11T13:56:21;5.93;;;1.40;;
48207;SDS011;33997;53.278;9.708;2023-03-11T13:58:50;4.60;;;1.38;;
48207;SDS011;33997;53.278;9.708;2023-03-11T14:01:16;3.60;;;1.50;;
48207;SDS011;33997;53.278;9.708;2023-03-11T14:03:43;3.45;;;1.27;;
48207;SDS011;33997;53.278;9.708;2023-03-11T14:06:17;4.85;;;1.27;;
48207;SDS011;33997;53.278;9.708;2023-03-11T14:08:51;3.50;;;1.10;;
48207;SDS011;33997;53.278;9.708;2023-03-11T14:11:24;5.20;;;1.10;;
48207;SDS011;33997;53.278;9.708;2023-03-11T14:13:51;4.47;;;1.27;;
48207;SDS011;33997;53.278;9.708;2023-03-11T14:19:00;7.55;;;1.65;;
48207;SDS011;33997;53.278;9.708;2023-03-11T14:21:28;3.47;;;1.30;;
48207;SDS011;33997;53.278;9.708;2023-03-11T14:23:55;5.15;;;1.45;;
48207;SDS011;33997;53.278;9.708;2023-03-11T14:26:31;5.65;;;1.20;;
48207;SDS011;33997;53.278;9.708;2023-03-11T14:29:06;4.57;;;1.25;;
48207;SDS011;33997;53.278;9.708;2023-03-11T14:36:48;6.82;;;1.50;;
48207;SDS011;33997;53.278;9.708;2023-03-11T14:42:10;7.15;;;1.30;;
48207;SDS011;33997;53.278;9.708;2023-03-11T14:45:09;7.68;;;1.35;;
48207;SDS011;33997;53.278;9.708;2023-03-11T14:50:36;4.15;;;1.23;;
48207;SDS011;33997;53.278;9.708;2023-03-11T14:53:06;6.65;;;1.40;;
48207;SDS011;33997;53.278;9.708;2023-03-11T14:55:53;5.70;;;1.75;;
48207;SDS011;33997;53.278;9.708;2023-03-11T14:58:31;5.72;;;1.67;;
48207;SDS011;33997;53.278;9.708;2023-03-11T15:03:57;6.10;;;1.73;;
48207;SDS011;33997;53.278;9.708;2023-03-11T15:06:32;2.85;;;1.25;;
48207;SDS011;33997;53.278;9.708;2023-03-11T15:09:09;4.07;;;1.10;;
48207;SDS011;33997;53.278;9.708;2023-03-11T15:14:21;3.38;;;1.35;;
48207;SDS011;33997;53.278;9.708;2023-03-11T15:16:52;4.60;;;1.17;;
48207;SDS011;33997;53.278;9.708;2023-03-11T15:19:20;4.78;;;1.00;;
48207;SDS011;33997;53.278;9.708;2023-03-11T15:21:48;2.97;;;0.88;;
48207;SDS011;33997;53.278;9.708;2023-03-11T15:24:19;6.15;;;1.02;;
48207;SDS011;33997;53.278;9.708;2023-03-11T15:26:56;2.00;;;1.00;;
48207;SDS011;33997;53.278;9.708;2023-03-11T15:29:25;5.82;;;1.40;;
48207;SDS011;33997;53.278;9.708;2023-03-11T15:31:51;4.68;;;1.35;;
48207;SDS011;33997;53.278;9.708;2023-03-11T15:37:04;7.03;;;1.55;;
48207;SDS011;33997;53.278;9.708;2023-03-11T15:39:41;6.38;;;1.60;;
48207;SDS011;33997;53.278;9.708;2023-03-11T15:42:13;4.13;;;1.10;;
48207;SDS011;33997;53.278;9.708;2023-03-11T15:44:58;4.20;;;1.08;;
48207;SDS011;33997;53.278;9.708;2023-03-11T15:47:29;3.95;;;1.10;;
48207;SDS011;33997;53.278;9.708;2023-03-11T15:50:00;5.47;;;1.08;;
48207;SDS011;33997;53.278;9.708;2023-03-11T15:52:38;5.53;;;1.27;;
48207;SDS011;33997;53.278;9.708;2023-03-11T15:55:04;5.53;;;1.10;;
48207;SDS011;33997;53.278;9.708;2023-03-11T15:57:30;3.38;;;1.00;;
48207;SDS011;33997;53.278;9.708;2023-03-11T15:59:56;7.28;;;1.10;;
48207;SDS011;33997;53.278;9.708;2023-03-11T16:02:27;6.13;;;1.67;;
48207;SDS011;33997;53.278;9.708;2023-03-11T16:04:54;5.10;;;1.23;;
48207;SDS011;33997;53.278;9.708;2023-03-11T16:07:20;4.47;;;1.40;;
48207;SDS011;33997;53.278;9.708;2023-03-11T16:09:46;5.15;;;1.00;;
48207;SDS011;33997;53.278;9.708;2023-03-11T16:12:13;8.38;;;1.40;;
48207;SDS011;33997;53.278;9.708;2023-03-11T16:14:44;3.97;;;0.98;;
48207;SDS011;33997;53.278;9.708;2023-03-11T16:17:11;3.78;;;1.10;;
48207;SDS011;33997;53.278;9.708;2023-03-11T16:19:48;4.43;;;1.20;;
48207;SDS011;33997;53.278;9.708;2023-03-11T16:22:17;5.72;;;1.67;;
48207;SDS011;33997;53.278;9.708;2023-03-11T16:24:45;8.98;;;1.40;;
48207;SDS011;33997;53.278;9.708;2023-03-11T16:27:14;4.95;;;1.25;;
48207;SDS011;33997;53.278;9.708;2023-03-11T16:29:41;5.40;;;1.77;;
48207;SDS011;33997;53.278;9.708;2023-03-11T16:32:08;5.78;;;1.52;;